createdAt,value
2022-09-17T00:01:24.311Z,4.07
2022-09-17T00:03:53.912Z,5.00
2022-09-17T00:06:22.132Z,4.70
2022-09-17T00:08:49.635Z,4.53
2022-09-17T00:11:21.328Z,4.53
2022-09-17T00:13:50.159Z,4.65
2022-09-17T00:16:32.735Z,4.75
2022-09-17T00:19:01.353Z,4.45
2022-09-17T00:21:28.891Z,4.13
2022-09-17T00:23:58.959Z,4.45
2022-09-17T00:26:27.270Z,4.55
2022-09-17T00:28:55.361Z,4.20
2022-09-17T00:31:23.185Z,4.20
2022-09-17T00:33:51.193Z,4.68
2022-09-17T00:36:20.567Z,4.25
2022-09-17T00:38:56.127Z,3.65
2022-09-17T00:41:29.567Z,3.70
2022-09-17T00:43:59.618Z,3.80
2022-09-17T00:46:39.795Z,3.00
2022-09-17T00:49:16.720Z,3.17
2022-09-17T00:51:57.047Z,3.80
2022-09-17T00:54:26.965Z,3.85
2022-09-17T00:56:54.727Z,3.45
2022-09-17T00:59:23.083Z,3.75
2022-09-17T01:01:50.856Z,4.28
2022-09-17T01:04:19.878Z,4.68
2022-09-17T01:07:08.377Z,4.10
2022-09-17T01:09:54.025Z,4.30
2022-09-17T01:15:03.485Z,4.40
2022-09-17T01:18:09.005Z,4.70
2022-09-17T01:21:03.318Z,4.10
2022-09-17T01:23:30.262Z,4.72
2022-09-17T01:26:16.527Z,4.82
2022-09-17T01:29:15.027Z,5.15
2022-09-17T01:31:56.014Z,4.80
2022-09-17T01:34:37.308Z,4.45
2022-09-17T01:37:06.162Z,4.90
2022-09-17T01:39:50.375Z,4.75
2022-09-17T01:42:20.684Z,5.23
2022-09-17T01:44:53.182Z,4.85
2022-09-17T01:47:26.293Z,5.28
2022-09-17T01:49:59.980Z,4.93
2022-09-17T01:52:29.020Z,5.50
2022-09-17T01:55:01.676Z,4.60
2022-09-17T01:57:33.744Z,4.72
2022-09-17T02:00:10.233Z,4.93
2022-09-17T02:03:06.777Z,4.70
2022-09-17T02:05:43.567Z,4.45
2022-09-17T02:08:26.248Z,4.95
2022-09-17T02:11:02.086Z,4.88
2022-09-17T02:13:37.271Z,5.32
2022-09-17T02:18:50.756Z,4.85
2022-09-17T02:21:27.806Z,5.25
2022-09-17T02:24:07.044Z,4.90
2022-09-17T02:26:36.318Z,4.95
2022-09-17T02:29:09.993Z,4.30
2022-09-17T02:31:37.035Z,4.85
2022-09-17T02:34:06.710Z,4.60
2022-09-17T02:36:35.227Z,4.20
2022-09-17T02:39:03.853Z,4.53
2022-09-17T02:41:54.590Z,4.85
2022-09-17T02:44:52.387Z,4.65
2022-09-17T02:47:44.806Z,4.78
2022-09-17T02:50:26.483Z,4.55
2022-09-17T02:53:06.898Z,4.43
2022-09-17T02:56:02.694Z,5.10
2022-09-17T02:58:45.097Z,4.68
2022-09-17T03:01:23.835Z,5.32
2022-09-17T03:03:52.678Z,4.25
2022-09-17T03:06:19.817Z,4.65
2022-09-17T03:08:47.856Z,4.20
2022-09-17T03:11:15.108Z,4.25
2022-09-17T03:13:42.175Z,4.63
2022-09-17T03:16:09.474Z,4.57
2022-09-17T03:18:36.740Z,4.05
2022-09-17T03:21:03.866Z,4.47
2022-09-17T03:23:30.804Z,4.00
2022-09-17T03:25:58.327Z,4.45
2022-09-17T03:28:26.541Z,3.97
2022-09-17T03:30:54.125Z,4.30
2022-09-17T03:33:21.682Z,4.72
2022-09-17T03:35:49.164Z,4.00
2022-09-17T03:38:16.860Z,4.35
2022-09-17T03:40:44.350Z,4.10
2022-09-17T03:43:11.401Z,4.53
2022-09-17T03:45:38.636Z,4.20
2022-09-17T03:48:05.815Z,4.40
2022-09-17T03:50:32.868Z,3.80
2022-09-17T03:52:59.852Z,4.35
2022-09-17T03:55:26.990Z,4.15
2022-09-17T03:57:54.145Z,4.57
2022-09-17T04:00:21.094Z,5.03
2022-09-17T04:02:48.796Z,4.53
2022-09-17T04:05:15.862Z,4.20
2022-09-17T04:07:42.790Z,4.65
2022-09-17T04:10:10.213Z,5.45
2022-09-17T04:12:37.303Z,3.92
2022-09-17T04:15:05.075Z,4.05
2022-09-17T04:17:32.702Z,5.43
2022-09-17T04:20:00.118Z,5.25
2022-09-17T04:22:27.212Z,5.22
2022-09-17T04:24:54.406Z,4.75
2022-09-17T04:27:21.454Z,5.25
2022-09-17T04:29:48.444Z,4.93
2022-09-17T04:32:15.812Z,4.72
2022-09-17T04:34:42.795Z,4.80
2022-09-17T04:37:09.909Z,6.35
2022-09-17T04:39:38.191Z,4.22
2022-09-17T04:42:05.293Z,4.30
2022-09-17T04:44:32.352Z,4.95
2022-09-17T04:46:59.631Z,5.90
2022-09-17T04:49:29.802Z,5.88
2022-09-17T04:51:56.772Z,5.35
2022-09-17T04:54:24.283Z,5.55
2022-09-17T04:56:51.758Z,6.32
2022-09-17T04:59:18.858Z,5.88
2022-09-17T05:01:46.273Z,5.20
2022-09-17T05:04:13.306Z,4.93
2022-09-17T05:06:40.380Z,5.93
2022-09-17T05:09:07.939Z,4.78
2022-09-17T05:11:35.674Z,5.32
2022-09-17T05:14:02.737Z,6.05
2022-09-17T05:16:29.989Z,4.22
2022-09-17T05:18:58.130Z,8.02
2022-09-17T05:21:25.455Z,17.60
2022-09-17T05:23:52.932Z,15.20
2022-09-17T05:26:19.937Z,5.22
2022-09-17T05:28:46.914Z,4.32
2022-09-17T05:31:14.224Z,4.22
2022-09-17T05:33:41.251Z,3.70
2022-09-17T05:36:08.357Z,4.88
2022-09-17T05:38:35.636Z,5.03
2022-09-17T05:41:06.780Z,6.28
2022-09-17T05:43:34.504Z,7.10
2022-09-17T05:46:07.930Z,4.22
2022-09-17T05:48:35.427Z,5.30
2022-09-17T05:51:02.721Z,4.97
2022-09-17T05:53:29.725Z,3.90
2022-09-17T05:55:58.564Z,4.75
2022-09-17T05:58:27.100Z,4.32
2022-09-17T06:00:54.111Z,4.35
2022-09-17T06:03:25.404Z,3.40
2022-09-17T06:05:58.507Z,4.45
2022-09-17T06:08:27.878Z,5.18
2022-09-17T06:10:58.934Z,4.22
2022-09-17T06:13:28.802Z,3.78
2022-09-17T06:15:56.161Z,3.50
2022-09-17T06:18:23.704Z,3.95
2022-09-17T06:20:55.679Z,5.70
2022-09-17T06:23:24.243Z,5.93
2022-09-17T06:26:00.922Z,3.63
2022-09-17T06:28:29.241Z,4.95
2022-09-17T06:31:03.894Z,4.78
2022-09-17T06:33:32.092Z,14.80
2022-09-17T06:36:13.152Z,10.38
2022-09-17T06:38:41.450Z,9.48
2022-09-17T06:41:08.500Z,9.68
2022-09-17T06:43:35.455Z,3.92
2022-09-17T06:46:09.224Z,4.28
2022-09-17T06:48:37.498Z,5.32
2022-09-17T06:51:07.896Z,8.80
2022-09-17T06:53:37.306Z,3.97
2022-09-17T06:56:06.877Z,3.92
2022-09-17T06:58:38.836Z,6.28
2022-09-17T07:01:06.397Z,4.50
2022-09-17T07:03:34.231Z,4.75
2022-09-17T07:06:01.631Z,4.15
2022-09-17T07:08:29.455Z,6.30
2022-09-17T07:10:57.360Z,3.08
2022-09-17T07:13:25.431Z,2.95
2022-09-17T07:15:58.031Z,2.53
2022-09-17T07:18:26.477Z,4.43
2022-09-17T07:20:55.235Z,5.22
2022-09-17T07:23:26.903Z,3.08
2022-09-17T07:26:02.368Z,2.40
2022-09-17T07:28:29.938Z,3.25
2022-09-17T07:31:05.390Z,2.60
2022-09-17T07:33:34.335Z,2.63
2022-09-17T07:36:03.538Z,3.20
2022-09-17T07:38:31.376Z,2.50
2022-09-17T07:41:02.795Z,3.08
2022-09-17T07:43:32.325Z,2.72
2022-09-17T07:46:01.524Z,3.15
2022-09-17T07:48:29.700Z,2.60
2022-09-17T07:50:57.299Z,3.60
2022-09-17T07:53:24.934Z,3.72
2022-09-17T07:55:56.655Z,2.78
2022-09-17T07:58:32.415Z,3.85
2022-09-17T08:01:04.653Z,3.20
2022-09-17T08:03:31.949Z,1.95
2022-09-17T08:06:13.226Z,1.60
2022-09-17T08:08:44.319Z,2.78
2022-09-17T08:11:32.444Z,2.65
2022-09-17T08:14:04.776Z,3.17
2022-09-17T08:16:31.939Z,2.58
2022-09-17T08:18:59.061Z,2.97
2022-09-17T08:21:26.655Z,1.70
2022-09-17T08:23:53.621Z,3.63
2022-09-17T08:26:23.583Z,8.23
2022-09-17T08:28:55.040Z,15.13
2022-09-17T08:31:24.111Z,2.50
2022-09-17T08:33:51.644Z,5.35
2022-09-17T08:36:19.980Z,2.88
2022-09-17T08:38:47.367Z,8.10
2022-09-17T08:41:26.818Z,14.93
2022-09-17T08:43:56.602Z,4.88
2022-09-17T08:46:25.590Z,10.45
2022-09-17T08:49:12.262Z,2.85
2022-09-17T08:51:55.083Z,1.45
2022-09-17T08:54:57.087Z,1.70
2022-09-17T08:57:27.166Z,2.90
2022-09-17T09:00:09.982Z,2.15
2022-09-17T09:03:03.573Z,3.03
2022-09-17T09:05:39.898Z,1.63
2022-09-17T09:08:14.429Z,2.13
2022-09-17T09:10:52.481Z,2.10
2022-09-17T09:13:22.942Z,2.38
2022-09-17T09:16:02.461Z,2.53
2022-09-17T09:18:38.529Z,5.32
2022-09-17T09:21:07.333Z,2.22
2022-09-17T09:23:44.556Z,5.47
2022-09-17T09:26:18.878Z,6.50
2022-09-17T09:29:05.948Z,5.57
2022-09-17T09:31:50.282Z,2.80
2022-09-17T09:34:17.729Z,5.40
2022-09-17T09:36:45.622Z,10.48
2022-09-17T09:39:16.047Z,3.00
2022-09-17T09:41:47.439Z,5.43
2022-09-17T09:44:16.788Z,4.30
2022-09-17T09:47:24.608Z,4.70
2022-09-17T09:50:00.532Z,2.33
2022-09-17T09:52:46.031Z,5.50
2022-09-17T09:55:34.448Z,4.22
2022-09-17T09:58:38.422Z,4.00
2022-09-17T10:01:17.742Z,8.18
2022-09-17T10:03:47.735Z,4.70
2022-09-17T10:06:17.117Z,12.23
2022-09-17T10:08:50.977Z,3.78
2022-09-17T10:11:26.564Z,4.20
2022-09-17T10:13:54.654Z,17.80
2022-09-17T10:16:21.967Z,8.18
2022-09-17T10:18:51.312Z,5.18
2022-09-17T10:21:33.156Z,4.28
2022-09-17T10:24:02.439Z,3.47
2022-09-17T10:26:32.525Z,4.57
2022-09-17T10:29:06.114Z,4.07
2022-09-17T10:31:50.944Z,4.18
2022-09-17T10:34:23.530Z,5.68
2022-09-17T10:36:51.473Z,5.00
2022-09-17T10:39:46.641Z,7.28
2022-09-17T10:42:18.908Z,5.80
2022-09-17T10:45:00.860Z,4.10
2022-09-17T10:47:42.447Z,4.00
2022-09-17T10:50:19.182Z,8.30
2022-09-17T10:52:55.889Z,45.28
2022-09-17T10:55:44.062Z,7.70
2022-09-17T10:58:15.110Z,12.75
2022-09-17T11:00:52.369Z,11.20
2022-09-17T11:03:42.009Z,6.82
2022-09-17T11:06:23.761Z,17.83
2022-09-17T11:09:02.379Z,7.68
2022-09-17T11:11:38.657Z,4.70
2022-09-17T11:14:24.268Z,11.00
2022-09-17T11:17:07.637Z,4.60
2022-09-17T11:19:55.430Z,5.20
2022-09-17T11:22:25.618Z,5.47
2022-09-17T11:25:21.695Z,4.53
2022-09-17T11:28:13.727Z,3.47
2022-09-17T11:30:58.657Z,5.22
2022-09-17T11:34:17.908Z,4.78
2022-09-17T11:36:52.604Z,4.15
2022-09-17T11:39:26.216Z,3.60
2022-09-17T11:41:56.034Z,2.97
2022-09-17T11:44:40.965Z,7.00
2022-09-17T11:50:11.715Z,6.90
2022-09-17T11:53:04.484Z,7.32
2022-09-17T11:55:35.495Z,18.55
2022-09-17T11:58:39.706Z,13.35
2022-09-17T12:01:12.218Z,35.97
2022-09-17T12:03:56.984Z,20.48
2022-09-17T12:06:52.328Z,25.48
2022-09-17T12:11:56.589Z,19.23
2022-09-17T12:14:31.827Z,13.07
2022-09-17T12:17:02.638Z,5.63
2022-09-17T12:19:48.344Z,7.18
2022-09-17T12:22:24.010Z,7.28
2022-09-17T12:24:52.990Z,5.60
2022-09-17T12:27:47.841Z,7.97
2022-09-17T12:30:35.438Z,6.00
2022-09-17T12:33:16.023Z,7.03
2022-09-17T12:36:23.281Z,5.55
2022-09-17T12:39:15.431Z,4.47
2022-09-17T12:41:45.692Z,7.55
2022-09-17T12:44:31.053Z,11.88
2022-09-17T12:47:31.866Z,6.30
2022-09-17T12:50:27.225Z,23.83
2022-09-17T12:55:44.044Z,8.38
2022-09-17T12:58:31.075Z,8.63
2022-09-17T13:01:06.007Z,5.40
2022-09-17T13:03:41.470Z,7.07
2022-09-17T13:06:20.064Z,6.93
2022-09-17T13:09:06.210Z,12.63
2022-09-17T13:11:56.693Z,8.63
2022-09-17T13:14:57.785Z,8.05
2022-09-17T13:17:28.573Z,7.35
2022-09-17T13:20:14.602Z,6.43
2022-09-17T13:22:47.157Z,9.77
2022-09-17T13:25:17.223Z,11.68
2022-09-17T13:27:45.800Z,11.80
2022-09-17T13:30:15.828Z,8.82
2022-09-17T13:32:45.623Z,16.75
2022-09-17T13:35:15.513Z,12.57
2022-09-17T13:38:01.695Z,15.48
2022-09-17T13:40:36.958Z,8.93
2022-09-17T13:43:08.265Z,7.93
2022-09-17T13:46:11.001Z,7.28
2022-09-17T13:48:46.542Z,7.40
2022-09-17T13:51:34.855Z,6.85
2022-09-17T13:54:09.046Z,5.90
2022-09-17T13:56:52.280Z,24.92
2022-09-17T13:59:28.767Z,13.38
2022-09-17T14:01:57.605Z,8.15
2022-09-17T14:04:42.569Z,5.38
2022-09-17T14:10:43.597Z,13.38
2022-09-17T14:13:27.726Z,7.90
2022-09-17T14:15:58.214Z,7.03
2022-09-17T14:18:28.400Z,5.88
2022-09-17T14:21:14.833Z,7.05
2022-09-17T14:23:49.093Z,7.75
2022-09-17T14:26:32.664Z,6.80
2022-09-17T14:29:21.889Z,16.50
2022-09-17T14:31:49.066Z,9.15
2022-09-17T14:34:22.175Z,8.38
2022-09-17T14:36:50.844Z,6.25
2022-09-17T14:39:25.231Z,8.30
2022-09-17T14:41:54.463Z,24.45
2022-09-17T14:44:25.925Z,14.35
2022-09-17T14:47:04.415Z,33.47
2022-09-17T14:49:36.281Z,12.60
2022-09-17T14:52:24.810Z,17.23
2022-09-17T14:55:11.140Z,45.72
2022-09-17T14:57:38.812Z,20.10
2022-09-17T15:00:10.996Z,25.42
2022-09-17T15:02:38.312Z,13.45
2022-09-17T15:05:26.823Z,31.58
2022-09-17T15:08:17.264Z,45.45
2022-09-17T15:10:55.190Z,13.95
2022-09-17T15:13:35.811Z,16.13
2022-09-17T15:16:07.806Z,10.70
2022-09-17T15:18:50.690Z,16.27
2022-09-17T15:21:44.645Z,53.15
2022-09-17T15:24:30.296Z,64.63
2022-09-17T15:27:03.482Z,53.95
2022-09-17T15:29:33.533Z,93.93
2022-09-17T15:32:04.991Z,43.88
2022-09-17T15:34:32.751Z,44.33
2022-09-17T15:37:07.305Z,34.22
2022-09-17T15:39:42.955Z,40.35
2022-09-17T15:42:24.245Z,36.88
2022-09-17T15:44:51.564Z,42.92
2022-09-17T15:48:02.063Z,27.10
2022-09-17T15:50:31.841Z,24.20
2022-09-17T15:53:10.618Z,13.13
2022-09-17T15:55:42.688Z,20.27
2022-09-17T15:58:23.494Z,25.13
2022-09-17T16:01:16.438Z,33.47
2022-09-17T16:03:44.538Z,45.42
2022-09-17T16:06:25.336Z,12.95
2022-09-17T16:08:57.492Z,24.33
2022-09-17T16:11:32.169Z,46.30
2022-09-17T16:14:03.264Z,60.67
2022-09-17T16:16:35.745Z,73.03
2022-09-17T16:19:04.438Z,9.63
2022-09-17T16:21:32.176Z,148.77
2022-09-17T16:23:59.323Z,9.02
2022-09-17T16:26:30.645Z,6.82
2022-09-17T16:29:05.628Z,12.05
2022-09-17T16:31:33.530Z,13.82
2022-09-17T16:34:01.148Z,13.02
2022-09-17T16:36:31.061Z,80.68
2022-09-17T16:38:59.287Z,24.85
2022-09-17T16:41:26.871Z,24.85
2022-09-17T16:43:54.180Z,24.13
2022-09-17T16:46:21.406Z,20.15
2022-09-17T16:48:51.889Z,41.85
2022-09-17T16:51:18.993Z,23.85
2022-09-17T16:53:46.209Z,67.72
2022-09-17T16:56:15.359Z,44.25
2022-09-17T16:58:42.630Z,37.58
2022-09-17T17:01:11.965Z,10.30
2022-09-17T17:03:39.881Z,6.72
2022-09-17T17:06:07.425Z,9.50
2022-09-17T17:08:34.838Z,24.27
2022-09-17T17:11:03.038Z,27.23
2022-09-17T17:13:30.021Z,25.00
2022-09-17T17:15:57.426Z,25.30
2022-09-17T17:18:25.079Z,26.42
2022-09-17T17:20:52.316Z,26.67
2022-09-17T17:23:19.336Z,32.80
2022-09-17T17:25:47.023Z,26.00
2022-09-17T17:28:15.007Z,24.70
2022-09-17T17:30:46.565Z,35.88
2022-09-17T17:33:14.889Z,48.50
2022-09-17T17:35:41.966Z,54.85
2022-09-17T17:38:08.940Z,41.53
2022-09-17T17:40:36.418Z,47.05
2022-09-17T17:43:03.617Z,17.88
2022-09-17T17:45:30.853Z,10.00
2022-09-17T17:47:57.994Z,7.55
2022-09-17T17:50:24.990Z,13.02
2022-09-17T17:52:54.766Z,6.03
2022-09-17T17:55:21.987Z,5.97
2022-09-17T17:58:01.369Z,9.57
2022-09-17T18:00:29.386Z,5.25
2022-09-17T18:02:56.413Z,5.90
2022-09-17T18:05:23.976Z,4.20
2022-09-17T18:07:51.181Z,5.22
2022-09-17T18:10:19.693Z,8.70
2022-09-17T18:12:50.596Z,7.82
2022-09-17T18:15:17.971Z,11.35
2022-09-17T18:17:48.022Z,11.93
2022-09-17T18:20:15.289Z,14.85
2022-09-17T18:22:42.577Z,25.55
2022-09-17T18:25:09.876Z,24.42
2022-09-17T18:27:36.816Z,32.78
2022-09-17T18:30:04.453Z,55.53
2022-09-17T18:32:31.519Z,41.65
2022-09-17T18:34:58.525Z,33.38
2022-09-17T18:37:25.785Z,27.75
2022-09-17T18:39:58.405Z,31.27
2022-09-17T18:42:26.548Z,34.10
2022-09-17T18:44:53.513Z,32.92
2022-09-17T18:47:20.555Z,31.00
2022-09-17T18:49:48.021Z,35.88
2022-09-17T18:52:15.268Z,77.55
2022-09-17T18:54:46.235Z,81.85
2022-09-17T18:57:13.968Z,78.60
2022-09-17T18:59:43.671Z,139.88
2022-09-17T19:02:13.970Z,122.85
2022-09-17T19:04:41.394Z,33.15
2022-09-17T19:07:08.532Z,29.52
2022-09-17T19:09:35.770Z,21.20
2022-09-17T19:12:03.155Z,18.20
2022-09-17T19:14:30.171Z,55.65
2022-09-17T19:16:57.192Z,58.42
2022-09-17T19:19:24.408Z,41.75
2022-09-17T19:21:51.385Z,87.15
2022-09-17T19:24:18.559Z,59.70
2022-09-17T19:26:50.635Z,74.57
2022-09-17T19:29:17.988Z,58.97
2022-09-17T19:31:45.234Z,37.13
2022-09-17T19:34:12.546Z,40.28
2022-09-17T19:36:39.539Z,42.53
2022-09-17T19:39:06.550Z,34.20
2022-09-17T19:41:37.088Z,35.53
2022-09-17T19:44:04.184Z,27.13
2022-09-17T19:46:32.342Z,22.63
2022-09-17T19:49:00.563Z,18.38
2022-09-17T19:51:32.174Z,20.35
2022-09-17T19:53:59.274Z,17.83
2022-09-17T19:56:27.775Z,19.48
2022-09-17T19:58:54.779Z,22.02
2022-09-17T20:01:22.235Z,25.20
2022-09-17T20:03:49.708Z,29.05
2022-09-17T20:06:18.849Z,29.15
2022-09-17T20:08:53.906Z,36.00
2022-09-17T20:11:23.634Z,31.25
2022-09-17T20:13:50.873Z,32.65
2022-09-17T20:16:21.835Z,39.15
2022-09-17T20:18:50.392Z,41.35
2022-09-17T20:21:20.594Z,44.22
2022-09-17T20:23:51.100Z,38.25
2022-09-17T20:26:18.230Z,29.88
2022-09-17T20:28:45.297Z,29.02
2022-09-17T20:31:15.106Z,25.13
2022-09-17T20:33:42.913Z,23.77
2022-09-17T20:36:15.463Z,23.45
2022-09-17T20:41:34.928Z,22.50
2022-09-17T20:44:06.357Z,26.00
2022-09-17T20:46:33.697Z,25.33
2022-09-17T20:49:00.689Z,27.60
2022-09-17T20:51:32.690Z,26.67
2022-09-17T20:54:01.893Z,22.05
2022-09-17T20:56:33.000Z,25.88
2022-09-17T20:59:09.421Z,25.45
2022-09-17T21:01:37.785Z,23.23
2022-09-17T21:04:08.029Z,24.05
2022-09-17T21:06:41.118Z,23.98
2022-09-17T21:09:15.529Z,17.30
2022-09-17T21:11:44.339Z,15.00
2022-09-17T21:14:12.347Z,19.73
2022-09-17T21:16:40.349Z,20.15
2022-09-17T21:19:09.074Z,18.23
2022-09-17T21:21:36.706Z,14.95
2022-09-17T21:24:06.225Z,15.10
2022-09-17T21:26:36.423Z,14.90
2022-09-17T21:29:04.920Z,17.27
2022-09-17T21:31:34.536Z,17.88
2022-09-17T21:34:04.932Z,18.10
2022-09-17T21:36:34.847Z,15.80
2022-09-17T21:39:05.852Z,16.48
2022-09-17T21:41:33.236Z,11.60
2022-09-17T21:44:00.437Z,11.73
2022-09-17T21:46:34.538Z,14.60
2022-09-17T21:49:02.621Z,15.77
2022-09-17T21:51:37.044Z,14.38
2022-09-17T21:54:12.710Z,12.15
2022-09-17T21:56:39.884Z,13.48
2022-09-17T21:59:09.318Z,11.63
2022-09-17T22:01:42.351Z,13.52
2022-09-17T22:04:13.052Z,12.93
2022-09-17T22:06:41.410Z,14.23
2022-09-17T22:09:14.291Z,13.55
2022-09-17T22:11:41.814Z,18.30
2022-09-17T22:14:15.196Z,15.70
2022-09-17T22:16:46.551Z,16.27
2022-09-17T22:19:16.494Z,15.50
2022-09-17T22:21:47.438Z,16.05
2022-09-17T22:24:19.182Z,15.07
2022-09-17T22:26:52.850Z,15.93
2022-09-17T22:29:23.108Z,16.67
2022-09-17T22:31:50.276Z,15.18
2022-09-17T22:34:20.422Z,19.23
2022-09-17T22:36:48.212Z,19.58
2022-09-17T22:39:15.687Z,19.42
2022-09-17T22:41:45.357Z,14.60
2022-09-17T22:44:18.255Z,13.60
2022-09-17T22:46:47.220Z,16.98
2022-09-17T22:49:15.047Z,16.58
2022-09-17T22:51:43.316Z,16.73
2022-09-17T22:54:12.017Z,16.38
2022-09-17T22:56:39.579Z,14.30
2022-09-17T22:59:06.923Z,13.73
2022-09-17T23:01:36.571Z,13.38
2022-09-17T23:04:04.838Z,12.93
2022-09-17T23:06:35.024Z,13.25
2022-09-17T23:09:02.905Z,17.05
2022-09-17T23:11:33.338Z,14.35
2022-09-17T23:14:03.095Z,14.32
2022-09-17T23:16:42.210Z,16.23
2022-09-17T23:19:09.949Z,14.20
2022-09-17T23:21:38.590Z,13.13
2022-09-17T23:24:06.489Z,10.73
2022-09-17T23:26:33.971Z,15.68
2022-09-17T23:29:04.968Z,13.73
2022-09-17T23:31:34.859Z,16.55
2022-09-17T23:34:03.846Z,16.52
2022-09-17T23:36:32.385Z,16.08
2022-09-17T23:39:02.081Z,14.60
2022-09-17T23:41:32.506Z,12.25
2022-09-17T23:44:10.705Z,44.22
2022-09-17T23:46:41.468Z,56.30
2022-09-17T23:49:10.095Z,30.08
2022-09-17T23:51:37.209Z,14.32
2022-09-17T23:54:06.938Z,13.27
2022-09-17T23:56:34.643Z,10.15
2022-09-17T23:59:02.224Z,10.02
